Station Historical Data
Daily Summary for April 4, 2017 Units:  Both    English   Metric
« Previous Day
Next Day »
Daily Weekly Monthly Yearly Custom
  High: Low: Average:
Temperature: 81.1 °F /  27.3 °C 58.2 °F /  14.6 °C 68.8 °F /  20.4 °C
Dew Point: 58.8 °F /  14.9 °C 45.2 °F /  7.3 °C 54.5 °F /  12.5 °C
Humidity: 95% 31% 65%
Wind Speed: 1.0mph /  1.6km/h - 0.1mph /  0.2km/h
Wind Gust: 6.0mph /  9.7km/h - -
Wind- - SSW
Pressure: 29.90 in /  1012.4 hPa 29.77 in /  1008 hPa -
Precipitation: 0.00 in /  0 mm    
Historical Graphs
 
 
Tabular Data for April 4, 2017
Time Temperature Dew Point Pressure Wind Wind Speed Wind Gust Humidity Rainfall Rate (Hourly) Conditions
00:00 60.5 °F /  15.8 °C 57.9 °F /  14.4 °C 29.77in /  1008hPa Calm   3.0mph /  4.8km/h 91% 0.00in /  0mm SCT
00:15 60.6 °F /  15.9 °C 58.0 °F /  14.4 °C 29.77in /  1008hPa Calm   3.0mph /  4.8km/h 91% 0.00in /  0mm SCT
00:30 60.5 °F /  15.8 °C 57.9 °F /  14.4 °C 29.77in /  1008hPa Calm   2.0mph /  3.2km/h 91% 0.00in /  0mm SCT
00:45 60.4 °F /  15.8 °C 57.8 °F /  14.3 °C 29.77in /  1008hPa Calm   1.0mph /  1.6km/h 91% 0.00in /  0mm SCT
01:00 60.5 °F /  15.8 °C 57.9 °F /  14.4 °C 29.77in /  1008hPa Calm   2.0mph /  3.2km/h 91% 0.00in /  0mm SCT
01:15 60.5 °F /  15.8 °C 57.9 °F /  14.4 °C 29.77in /  1008hPa Calm   5.0mph /  8km/h 91% 0.00in /  0mm SCT
01:30 60.7 °F /  15.9 °C 58.1 °F /  14.5 °C 29.78in /  1008.4hPa Calm   5.0mph /  8km/h 91% 0.00in /  0mm SCT
01:45 60.8 °F /  16 °C 58.2 °F /  14.6 °C 29.78in /  1008.4hPa Calm   2.0mph /  3.2km/h 91% 0.00in /  0mm SCT
02:00 60.8 °F /  16 °C 58.2 °F /  14.6 °C 29.78in /  1008.4hPa Calm   3.0mph /  4.8km/h 91% 0.00in /  0mm SCT
02:15 60.9 °F /  16.1 °C 58.3 °F /  14.6 °C 29.78in /  1008.4hPa Calm   5.0mph /  8km/h 91% 0.00in /  0mm SCT
02:30 61.1 °F /  16.2 °C 58.5 °F /  14.7 °C 29.79in /  1008.7hPa Calm   2.0mph /  3.2km/h 91% 0.00in /  0mm SCT
02:45 61.3 °F /  16.3 °C 58.7 °F /  14.8 °C 29.79in /  1008.7hPa Calm   2.0mph /  3.2km/h 91% 0.00in /  0mm SCT
03:00 61.3 °F /  16.3 °C 58.3 °F /  14.6 °C 29.79in /  1008.7hPa Calm   1.0mph /  1.6km/h 90% 0.00in /  0mm SCT
03:15 60.9 °F /  16.1 °C 58.3 °F /  14.6 °C 29.80in /  1009hPa Calm   1.0mph /  1.6km/h 91% 0.00in /  0mm SCT
03:30 60.9 °F /  16.1 °C 58.3 °F /  14.6 °C 29.80in /  1009hPa Calm   1.0mph /  1.6km/h 91% 0.00in /  0mm SCT
03:45 61.0 °F /  16.1 °C 58.4 °F /  14.7 °C 29.80in /  1009hPa Calm   1.0mph /  1.6km/h 91% 0.00in /  0mm SCT
04:15 60.5 °F /  15.8 °C 58.2 °F /  14.6 °C 29.81in /  1009.4hPa Calm     92% 0.00in /  0mm SCT
04:30 60.2 °F /  15.7 °C 58.8 °F /  14.9 °C 29.81in /  1009.4hPa Calm     95% 0.00in /  0mm SCT
04:45 60.2 °F /  15.7 °C 58.8 °F /  14.9 °C 29.81in /  1009.4hPa Calm     95% 0.00in /  0mm SCT
05:00 60.2 °F /  15.7 °C 58.8 °F /  14.9 °C 29.82in /  1009.7hPa Calm     95% 0.00in /  0mm SCT
05:15 60.2 °F /  15.7 °C 58.8 °F /  14.9 °C 29.82in /  1009.7hPa Calm     95% 0.00in /  0mm SCT
05:30 60.2 °F /  15.7 °C 58.8 °F /  14.9 °C 29.83in /  1010hPa Calm     95% 0.00in /  0mm SCT
05:45 60.2 °F /  15.7 °C 58.8 °F /  14.9 °C 29.83in /  1010hPa Calm     95% 0.00in /  0mm SCT
06:00 60.2 °F /  15.7 °C 58.8 °F /  14.9 °C 29.83in /  1010hPa Calm     95% 0.00in /  0mm SCT
06:15 60.2 °F /  15.7 °C 58.8 °F /  14.9 °C 29.83in /  1010hPa Calm     95% 0.00in /  0mm SCT
06:30 60.2 °F /  15.7 °C 58.8 °F /  14.9 °C 29.83in /  1010hPa Calm     95% 0.00in /  0mm SCT
06:45 60.2 °F /  15.7 °C 58.8 °F /  14.9 °C 29.84in /  1010.4hPa Calm     95% 0.00in /  0mm SCT
07:00 60.2 °F /  15.7 °C 58.8 °F /  14.9 °C 29.85in /  1010.7hPa Calm     95% 0.00in /  0mm SCT
07:15 60.2 °F /  15.7 °C 58.8 °F /  14.9 °C 29.85in /  1010.7hPa Calm     95% 0.00in /  0mm SCT
07:30 60.2 °F /  15.7 °C 58.8 °F /  14.9 °C 29.85in /  1010.7hPa Calm     95% 0.00in /  0mm SCT
07:45 60.2 °F /  15.7 °C 58.8 °F /  14.9 °C 29.86in /  1011.1hPa Calm     95% 0.00in /  0mm SCT
08:00 58.2 °F /  14.6 °C 55.9 °F /  13.3 °C 29.86in /  1011.1hPa Calm   1.0mph /  1.6km/h 92% 0.00in /  0mm SCT
08:15 59.4 °F /  15.2 °C 57.1 °F /  13.9 °C 29.86in /  1011.1hPa Calm   1.0mph /  1.6km/h 92% 0.00in /  0mm SCT
08:30 60.7 °F /  15.9 °C 57.4 °F /  14.1 °C 29.87in /  1011.4hPa Calm   1.0mph /  1.6km/h 89% 0.00in /  0mm SCT
08:45 62.0 °F /  16.7 °C 57.4 °F /  14.1 °C 29.87in /  1011.4hPa Calm   1.0mph /  1.6km/h 85% 0.00in /  0mm SCT
09:00 62.9 °F /  17.2 °C 57.3 °F /  14.1 °C 29.87in /  1011.4hPa Calm     82% 0.00in /  0mm SCT
09:15 63.8 °F /  17.7 °C 57.9 °F /  14.4 °C 29.87in /  1011.4hPa Calm   2.0mph /  3.2km/h 81% 0.00in /  0mm SCT
09:30 64.7 °F /  18.2 °C 57.3 °F /  14.1 °C 29.88in /  1011.7hPa Calm   5.0mph /  8km/h 77% 0.00in /  0mm SCT
09:45 65.8 °F /  18.8 °C 57.7 °F /  14.3 °C 29.88in /  1011.7hPa NNW 1.0mph /  1.6km/h 3.0mph /  4.8km/h 75% 0.00in /  0mm SCT
10:00 68.0 °F /  20 °C 57.4 °F /  14.1 °C 29.87in /  1011.4hPa Calm   5.0mph /  8km/h 69% 0.00in /  0mm SCT
10:15 68.6 °F /  20.3 °C 58.0 °F /  14.4 °C 29.88in /  1011.7hPa Calm   3.0mph /  4.8km/h 69% 0.00in /  0mm SCT
10:30 69.6 °F /  20.9 °C 57.3 °F /  14.1 °C 29.88in /  1011.7hPa West 1.0mph /  1.6km/h 5.0mph /  8km/h 65% 0.00in /  0mm SCT
11:00 72.3 °F /  22.4 °C 58.1 °F /  14.5 °C 29.89in /  1012.1hPa Calm   5.0mph /  8km/h 61% 0.00in /  0mm SCT
11:15 73.1 °F /  22.8 °C 56.5 °F /  13.6 °C 29.90in /  1012.4hPa South 1.0mph /  1.6km/h 4.0mph /  6.4km/h 56% 0.00in /  0mm SCT
11:30 73.6 °F /  23.1 °C 57.4 °F /  14.1 °C 29.90in /  1012.4hPa Calm   2.0mph /  3.2km/h 57% 0.00in /  0mm SCT
11:45 73.9 °F /  23.3 °C 57.2 °F /  14 °C 29.90in /  1012.4hPa Calm   5.0mph /  8km/h 56% 0.00in /  0mm SCT
12:00 74.4 °F /  23.6 °C 55.6 °F /  13.1 °C 29.90in /  1012.4hPa SSE 1.0mph /  1.6km/h 5.0mph /  8km/h 52% 0.00in /  0mm SCT
12:15 75.0 °F /  23.9 °C 55.6 °F /  13.1 °C 29.90in /  1012.4hPa SW 1.0mph /  1.6km/h 6.0mph /  9.7km/h 51% 0.00in /  0mm SCT
12:30 75.8 °F /  24.3 °C 55.8 °F /  13.2 °C 29.90in /  1012.4hPa Calm   6.0mph /  9.7km/h 50% 0.00in /  0mm SCT
12:45 76.4 °F /  24.7 °C 55.8 °F /  13.2 °C 29.90in /  1012.4hPa ENE 1.0mph /  1.6km/h 6.0mph /  9.7km/h 49% 0.00in /  0mm SCT
13:00 77.2 °F /  25.1 °C 54.8 °F /  12.7 °C 29.89in /  1012.1hPa SSW 1.0mph /  1.6km/h 5.0mph /  8km/h 46% 0.00in /  0mm SCT
13:15 78.6 °F /  25.9 °C 54.3 °F /  12.4 °C 29.90in /  1012.4hPa Calm   5.0mph /  8km/h 43% 0.00in /  0mm SCT
13:30 79.5 °F /  26.4 °C 53.7 °F /  12.1 °C 29.90in /  1012.4hPa WNW 1.0mph /  1.6km/h 5.0mph /  8km/h 41% 0.00in /  0mm SCT
13:45 79.8 °F /  26.6 °C 54.0 °F /  12.2 °C 29.89in /  1012.1hPa ESE 1.0mph /  1.6km/h 5.0mph /  8km/h 41% 0.00in /  0mm SCT
14:00 80.3 °F /  26.8 °C 53.1 °F /  11.7 °C 29.88in /  1011.7hPa SE 1.0mph /  1.6km/h 5.0mph /  8km/h 39% 0.00in /  0mm SCT
14:15 81.1 °F /  27.3 °C 53.1 °F /  11.7 °C 29.87in /  1011.4hPa Calm   3.0mph /  4.8km/h 38% 0.00in /  0mm SCT
14:30 80.9 °F /  27.2 °C 55.0 °F /  12.8 °C 29.86in /  1011.1hPa West 1.0mph /  1.6km/h 2.0mph /  3.2km/h 41% 0.00in /  0mm SCT
14:45 79.7 °F /  26.5 °C 52.5 °F /  11.4 °C 29.85in /  1010.7hPa Calm   5.0mph /  8km/h 39% 0.00in /  0mm SCT
15:00 79.9 °F /  26.6 °C 52.7 °F /  11.5 °C 29.85in /  1010.7hPa Calm   2.0mph /  3.2km/h 39% 0.00in /  0mm SCT
15:15 80.3 °F /  26.8 °C 51.7 °F /  10.9 °C 29.84in /  1010.4hPa NNW 1.0mph /  1.6km/h 3.0mph /  4.8km/h 37% 0.00in /  0mm SCT
15:30 79.6 °F /  26.4 °C 51.0 °F /  10.6 °C 29.84in /  1010.4hPa Calm   2.0mph /  3.2km/h 37% 0.00in /  0mm SCT
15:45 79.6 °F /  26.4 °C 50.3 °F /  10.2 °C 29.84in /  1010.4hPa Calm   3.0mph /  4.8km/h 36% 0.00in /  0mm SCT
16:00 79.9 °F /  26.6 °C 49.8 °F /  9.9 °C 29.83in /  1010hPa Calm   5.0mph /  8km/h 35% 0.00in /  0mm SCT
16:15 80.3 °F /  26.8 °C 50.1 °F /  10.1 °C 29.83in /  1010hPa Calm   2.0mph /  3.2km/h 35% 0.00in /  0mm SCT
16:30 80.1 °F /  26.7 °C 49.2 °F /  9.6 °C 29.82in /  1009.7hPa Calm   5.0mph /  8km/h 34% 0.00in /  0mm SCT
16:45 80.0 °F /  26.7 °C 51.4 °F /  10.8 °C 29.82in /  1009.7hPa Calm   5.0mph /  8km/h 37% 0.00in /  0mm SCT
17:00 79.7 °F /  26.5 °C 51.1 °F /  10.6 °C 29.82in /  1009.7hPa Calm   3.0mph /  4.8km/h 37% 0.00in /  0mm SCT
17:15 79.9 °F /  26.6 °C 49.8 °F /  9.9 °C 29.82in /  1009.7hPa Calm   2.0mph /  3.2km/h 35% 0.00in /  0mm SCT
17:30 79.9 °F /  26.6 °C 49.0 °F /  9.4 °C 29.82in /  1009.7hPa North 1.0mph /  1.6km/h 5.0mph /  8km/h 34% 0.00in /  0mm SCT
17:45 79.6 °F /  26.4 °C 47.2 °F /  8.4 °C 29.82in /  1009.7hPa Calm   2.0mph /  3.2km/h 32% 0.00in /  0mm SCT
18:00 79.1 °F /  26.2 °C 47.5 °F /  8.6 °C 29.82in /  1009.7hPa Calm   2.0mph /  3.2km/h 33% 0.00in /  0mm SCT
18:15 78.7 °F /  25.9 °C 47.2 °F /  8.4 °C 29.82in /  1009.7hPa Calm   2.0mph /  3.2km/h 33% 0.00in /  0mm SCT
18:30 78.3 °F /  25.7 °C 45.2 °F /  7.3 °C 29.82in /  1009.7hPa Calm   3.0mph /  4.8km/h 31% 0.00in /  0mm SCT
18:45 77.8 °F /  25.4 °C 47.2 °F /  8.4 °C 29.82in /  1009.7hPa Calm   1.0mph /  1.6km/h 34% 0.00in /  0mm SCT
19:00 76.6 °F /  24.8 °C 47.7 °F /  8.7 °C 29.83in /  1010hPa Calm     36% 0.00in /  0mm SCT
19:15 75.7 °F /  24.3 °C 47.6 °F /  8.7 °C 29.83in /  1010hPa Calm     37% 0.00in /  0mm SCT
19:30 74.9 °F /  23.8 °C 48.3 °F /  9.1 °C 29.83in /  1010hPa Calm     39% 0.00in /  0mm SCT
19:45 74.2 °F /  23.4 °C 49.6 °F /  9.8 °C 29.83in /  1010hPa Calm     42% 0.00in /  0mm SCT
20:00 73.0 °F /  22.8 °C 49.8 °F /  9.9 °C 29.84in /  1010.4hPa Calm     44% 0.00in /  0mm SCT
20:15 72.2 °F /  22.3 °C 49.7 °F /  9.8 °C 29.84in /  1010.4hPa Calm     45% 0.00in /  0mm SCT
20:30 71.2 °F /  21.8 °C 49.4 °F /  9.7 °C 29.85in /  1010.7hPa Calm     46% 0.00in /  0mm SCT
20:45 70.2 °F /  21.2 °C 49.0 °F /  9.4 °C 29.85in /  1010.7hPa Calm     47% 0.00in /  0mm SCT
21:00 69.3 °F /  20.7 °C 50.9 °F /  10.5 °C 29.85in /  1010.7hPa Calm     52% 0.00in /  0mm SCT
21:15 68.7 °F /  20.4 °C 50.8 °F /  10.4 °C 29.87in /  1011.4hPa Calm     53% 0.00in /  0mm SCT
21:30 67.9 °F /  19.9 °C 49.6 °F /  9.8 °C 29.87in /  1011.4hPa Calm     52% 0.00in /  0mm SCT
21:45 66.9 °F /  19.4 °C 51.6 °F /  10.9 °C 29.88in /  1011.7hPa Calm   2.0mph /  3.2km/h 58% 0.00in /  0mm SCT
22:00 66.5 °F /  19.2 °C 51.3 °F /  10.7 °C 29.88in /  1011.7hPa Calm     58% 0.00in /  0mm SCT
22:15 65.8 °F /  18.8 °C 50.6 °F /  10.3 °C 29.88in /  1011.7hPa Calm     58% 0.00in /  0mm SCT
22:30 65.4 °F /  18.6 °C 51.1 °F /  10.6 °C 29.88in /  1011.7hPa Calm   1.0mph /  1.6km/h 60% 0.00in /  0mm SCT
22:45 65.1 °F /  18.4 °C 50.4 °F /  10.2 °C 29.88in /  1011.7hPa Calm     59% 0.00in /  0mm SCT
23:00 64.9 °F /  18.3 °C 51.1 °F /  10.6 °C 29.88in /  1011.7hPa Calm     61% 0.00in /  0mm SCT
23:15 64.5 °F /  18.1 °C 50.7 °F /  10.4 °C 29.88in /  1011.7hPa Calm     61% 0.00in /  0mm SCT
23:30 64.0 °F /  17.8 °C 51.6 °F /  10.9 °C 29.88in /  1011.7hPa Calm     64% 0.00in /  0mm SCT
23:45 63.8 °F /  17.7 °C 51.8 °F /  11 °C 29.88in /  1011.7hPa Calm     65% 0.00in /  0mm SCT
Piedmont Bend
Compliments of Weather Underground - 4 mb